Time;durP1;ratioP1;P1;durP2;ratioP2;P2;SDS_P1;SDS_P2;PMS_P1;PMS_P2;Temp;Humidity;BMP_temperature;BMP_pressure;BME280_temperature;BME280_humidity;BME280_pressure;Samples;Min_cycle;Max_cycle;Signal;HPM_P1;HPM_P2
2022/08/21 00:01:20;;;;;;;;;;;14.70;99.90;;;;;;5089102;28;19912;-75
2022/08/21 00:03:46;;;;;;;;;;;14.70;99.90;;;;;;5068031;28;19918;-76
2022/08/21 00:06:13;;;;;;;;;;;14.70;99.90;;;;;;5094731;28;19935;-76
2022/08/21 00:08:46;;;;;;;;;;;14.70;99.90;;;;;;5110126;28;19916;-76
2022/08/21 00:11:23;;;;;;;;;;;14.70;99.90;;;;;;5094273;28;20257;-76
2022/08/21 00:13:51;;;;;;;;;;;14.70;99.90;;;;;;5110604;27;19912;-76
2022/08/21 00:16:26;;;;;;;;;;;14.80;99.90;;;;;;5085958;28;19938;-76
2022/08/21 00:19:03;;;;;;;;;;;14.80;99.90;;;;;;5092457;28;19916;-78
2022/08/21 00:21:30;;;;;;;;;;;14.80;99.90;;;;;;5076173;28;19938;-76
2022/08/21 00:24:18;;;;;;;;;;;14.80;99.90;;;;;;5094916;28;19939;-76
2022/08/21 00:26:46;;;;;;;;;;;14.80;99.90;;;;;;5109817;28;19927;-76
2022/08/21 00:29:42;;;;;;;;;;;14.80;99.90;;;;;;5093438;28;20207;-76
2022/08/21 00:32:12;;;;;;;;;;;14.80;99.90;;;;;;5083616;28;19923;-77
2022/08/21 00:34:39;;;;;;;;;;;14.90;99.90;;;;;;5095929;28;20204;-76
2022/08/21 00:37:10;;;;;;;;;;;14.90;99.90;;;;;;5075732;28;20022;-75
2022/08/21 00:39:44;;;;;;;;;;;14.90;99.90;;;;;;5091653;28;19960;-75
2022/08/21 00:42:15;;;;;;;;;;;15.00;99.90;;;;;;5090593;28;19912;-78
2022/08/21 00:44:45;;;;;;;;;;;15.10;99.90;;;;;;5092251;28;19909;-75
2022/08/21 00:47:20;;;;;;;;;;;15.20;99.90;;;;;;5094442;28;20015;-75
2022/08/21 00:49:51;;;;;;;;;;;15.30;99.90;;;;;;5091810;28;19916;-75
2022/08/21 00:52:23;;;;;;;;;;;15.40;99.90;;;;;;5094938;28;20338;-75
2022/08/21 00:55:01;;;;;;;;;;;15.40;99.90;;;;;;5110766;28;19962;-75
2022/08/21 00:57:36;;;;;;;;;;;15.50;99.90;;;;;;5072586;28;19920;-75
2022/08/21 01:00:28;;;;;;;;;;;15.50;99.90;;;;;;5075760;28;19951;-75
2022/08/21 01:02:58;;;;;;;;;;;15.60;99.90;;;;;;5074115;28;20259;-77
2022/08/21 01:05:35;;;;;;;;;;;15.60;99.90;;;;;;5094468;28;20014;-75
2022/08/21 01:08:04;;;;;;;;;;;15.70;99.90;;;;;;5095269;28;19920;-76
2022/08/21 01:10:55;;;;;;;;;;;15.70;99.90;;;;;;5092559;28;19932;-76
2022/08/21 01:13:33;;;;;;;;;;;15.80;99.90;;;;;;5089639;28;20285;-75
2022/08/21 01:16:09;;;;;;;;;;;15.80;99.90;;;;;;5092163;28;19942;-75
2022/08/21 01:18:38;;;;;;;;;;;15.80;99.90;;;;;;5107085;28;19916;-75
2022/08/21 01:21:08;;;;;;;;;;;15.90;99.90;;;;;;5057753;28;19916;-76
2022/08/21 01:23:40;;;;;;;;;;;15.90;99.90;;;;;;5089121;28;19913;-75
2022/08/21 01:26:10;;;;;;;;;;;15.90;99.90;;;;;;5091468;28;19966;-75
2022/08/21 01:28:59;;;;;;;;;;;15.80;99.90;;;;;;5078535;28;19927;-75
2022/08/21 01:31:32;;;;;;;;;;;15.90;99.90;;;;;;5091322;28;20441;-75
2022/08/21 01:34:02;;;;;;;;;;;15.80;99.90;;;;;;5093494;28;20211;-76
2022/08/21 01:36:29;;;;;;;;;;;15.80;99.90;;;;;;5075853;28;19947;-76
2022/08/21 01:38:56;;;;;;;;;;;15.90;99.90;;;;;;5109295;28;20310;-75
2022/08/21 01:41:23;;;;;;;;;;;15.90;99.90;;;;;;5094048;28;19943;-76
2022/08/21 01:43:54;;;;;;;;;;;15.90;99.90;;;;;;5090743;28;19915;-76
2022/08/21 01:46:28;;;;;;;;;;;15.90;99.90;;;;;;5071811;28;19953;-76
2022/08/21 01:49:15;;;;;;;;;;;15.90;99.90;;;;;;5071589;28;20011;-76
2022/08/21 01:51:53;;;;;;;;;;;15.80;99.90;;;;;;5071059;28;20071;-76
2022/08/21 01:54:41;;;;;;;;;;;15.80;99.90;;;;;;5068802;28;19912;-75
2022/08/21 01:57:14;;;;;;;;;;;15.70;99.90;;;;;;5059913;28;19912;-75
2022/08/21 01:59:49;;;;;;;;;;;15.70;99.90;;;;;;5073555;28;19916;-76
2022/08/21 02:02:15;;;;;;;;;;;15.60;99.90;;;;;;5071758;28;20382;-75
2022/08/21 02:04:49;;;;;;;;;;;15.60;99.90;;;;;;5072683;28;19916;-75
2022/08/21 02:07:15;;;;;;;;;;;15.60;99.90;;;;;;5064844;28;19928;-75
2022/08/21 02:09:53;;;;;;;;;;;15.50;99.90;;;;;;5063845;28;19956;-75
2022/08/21 02:12:21;;;;;;;;;;;15.50;99.90;;;;;;5067224;28;20361;-75
2022/08/21 02:14:47;;;;;;;;;;;15.50;99.90;;;;;;5067855;28;20362;-76
2022/08/21 02:17:22;;;;;;;;;;;15.50;99.90;;;;;;5068172;28;20274;-76
2022/08/21 02:20:13;;;;;;;;;;;15.40;99.90;;;;;;5068702;28;19920;-75
2022/08/21 02:22:50;;;;;;;;;;;15.30;99.90;;;;;;5068068;28;19974;-76
2022/08/21 02:25:30;;;;;;;;;;;15.20;99.90;;;;;;5066594;28;20357;-76
2022/08/21 02:28:02;;;;;;;;;;;15.10;99.90;;;;;;5052778;28;19916;-77
2022/08/21 02:30:34;;;;;;;;;;;15.00;99.90;;;;;;5070373;28;19927;-76
2022/08/21 02:33:03;;;;;;;;;;;14.90;99.90;;;;;;5054460;28;20002;-78
2022/08/21 02:35:30;;;;;;;;;;;14.80;99.90;;;;;;5069873;28;19960;-77
2022/08/21 02:37:59;;;;;;;;;;;14.70;99.90;;;;;;5065640;28;20452;-76
2022/08/21 02:41:11;;;;;;;;;;;14.60;99.90;;;;;;5070250;28;20284;-75
2022/08/21 02:43:57;;;;;;;;;;;14.60;99.90;;;;;;5078318;28;20002;-76
2022/08/21 02:46:28;;;;;;;;;;;14.60;99.90;;;;;;5090376;28;19912;-77
2022/08/21 02:49:25;;;;;;;;;;;14.60;99.90;;;;;;5091392;28;20010;-76
2022/08/21 02:52:02;;;;;;;;;;;14.60;99.90;;;;;;5092678;28;19965;-77
2022/08/21 02:54:30;;;;;;;;;;;14.50;99.90;;;;;;5091264;28;20027;-78
2022/08/21 02:56:57;;;;;;;;;;;14.50;99.90;;;;;;5092636;28;19912;-77
2022/08/21 02:59:23;;;;;;;;;;;14.50;99.90;;;;;;5093053;28;19916;-76
2022/08/21 03:01:49;;;;;;;;;;;14.50;99.90;;;;;;5093349;28;19912;-76
2022/08/21 03:04:16;;;;;;;;;;;14.40;99.90;;;;;;5107237;28;19973;-77
2022/08/21 03:06:42;;;;;;;;;;;14.40;99.90;;;;;;5090103;28;20008;-76
2022/08/21 03:09:08;;;;;;;;;;;14.40;99.90;;;;;;5107735;28;19916;-78
2022/08/21 03:11:34;;;;;;;;;;;14.50;99.90;;;;;;5091910;28;20222;-76
2022/08/21 03:13:59;;;;;;;;;;;14.50;99.90;;;;;;5094304;28;19916;-77
2022/08/21 03:16:25;;;;;;;;;;;14.50;99.90;;;;;;5091013;28;19920;-77
2022/08/21 03:18:51;;;;;;;;;;;14.50;99.90;;;;;;5088558;28;19923;-77
2022/08/21 03:21:18;;;;;;;;;;;14.50;99.90;;;;;;5092856;28;19916;-78
2022/08/21 03:23:44;;;;;;;;;;;14.40;99.90;;;;;;5092812;28;19920;-76
2022/08/21 03:26:10;;;;;;;;;;;14.40;99.90;;;;;;5076099;28;19922;-77
2022/08/21 03:28:38;;;;;;;;;;;14.40;99.90;;;;;;5093419;28;20310;-80
2022/08/21 03:31:05;;;;;;;;;;;14.40;99.90;;;;;;5097732;28;19915;-76
2022/08/21 03:33:31;;;;;;;;;;;14.30;99.90;;;;;;5097546;28;19954;-78
2022/08/21 03:36:00;;;;;;;;;;;14.30;99.90;;;;;;5095961;28;19916;-77
2022/08/21 03:38:27;;;;;;;;;;;14.20;99.90;;;;;;5096020;28;20287;-77
2022/08/21 03:40:53;;;;;;;;;;;14.30;99.90;;;;;;5078634;28;20292;-77
2022/08/21 03:43:19;;;;;;;;;;;14.20;99.90;;;;;;5096677;28;19944;-75
2022/08/21 03:45:51;;;;;;;;;;;14.20;99.90;;;;;;5111722;27;19935;-77
2022/08/21 03:48:17;;;;;;;;;;;14.20;99.90;;;;;;5096231;28;19908;-76
2022/08/21 03:50:43;;;;;;;;;;;14.20;99.90;;;;;;5095926;28;19991;-76
2022/08/21 03:53:11;;;;;;;;;;;14.20;99.90;;;;;;5086421;28;19966;-76
2022/08/21 03:55:38;;;;;;;;;;;14.20;99.90;;;;;;5092529;28;20331;-77
2022/08/21 03:58:05;;;;;;;;;;;14.10;99.90;;;;;;5075536;28;20017;-75
2022/08/21 04:00:31;;;;;;;;;;;14.20;99.90;;;;;;5089886;28;19923;-76
2022/08/21 04:02:58;;;;;;;;;;;14.10;99.90;;;;;;5089336;28;20015;-75
2022/08/21 04:05:26;;;;;;;;;;;14.10;99.90;;;;;;5087327;28;19989;-76
2022/08/21 04:07:55;;;;;;;;;;;14.10;99.90;;;;;;5071419;28;20014;-77
2022/08/21 04:10:20;;;;;;;;;;;14.10;99.90;;;;;;5088152;28;20741;-76
2022/08/21 04:12:46;;;;;;;;;;;14.20;99.90;;;;;;5069337;28;19916;-76
2022/08/21 04:15:16;;;;;;;;;;;14.30;99.90;;;;;;5072291;28;19943;-77
2022/08/21 04:17:45;;;;;;;;;;;14.30;99.90;;;;;;5091879;28;19920;-77
2022/08/21 04:20:13;;;;;;;;;;;14.30;99.90;;;;;;5089121;28;19916;-76
2022/08/21 04:22:42;;;;;;;;;;;14.30;99.90;;;;;;5092479;28;19920;-76
2022/08/21 04:28:39;;;;;;;;;;;14.20;99.90;;;;;;5093678;28;19918;-75
2022/08/21 04:31:04;;;;;;;;;;;14.20;99.90;;;;;;5082507;28;19916;-76
2022/08/21 04:33:30;;;;;;;;;;;14.20;99.90;;;;;;5088214;28;19919;-77
2022/08/21 04:35:55;;;;;;;;;;;14.20;99.90;;;;;;5069443;28;19920;-75
2022/08/21 04:38:21;;;;;;;;;;;14.20;99.90;;;;;;5086446;28;19913;-75
2022/08/21 04:40:48;;;;;;;;;;;14.30;99.90;;;;;;5087703;28;19944;-75
2022/08/21 04:43:14;;;;;;;;;;;14.30;99.90;;;;;;5086864;28;19912;-76
2022/08/21 04:45:44;;;;;;;;;;;14.30;99.90;;;;;;5088677;28;19923;-76
2022/08/21 04:48:11;;;;;;;;;;;14.40;99.90;;;;;;5089650;28;20011;-75
2022/08/21 04:50:48;;;;;;;;;;;14.40;99.90;;;;;;5086776;28;19915;-75
2022/08/21 04:53:30;;;;;;;;;;;14.40;99.90;;;;;;5089098;28;20298;-76
2022/08/21 04:55:57;;;;;;;;;;;14.50;99.90;;;;;;5086104;28;19912;-75
2022/08/21 04:58:25;;;;;;;;;;;14.50;99.90;;;;;;5106050;28;20368;-75
2022/08/21 05:00:52;;;;;;;;;;;14.50;99.90;;;;;;5089379;28;19912;-75
2022/08/21 05:03:17;;;;;;;;;;;14.60;99.90;;;;;;5092399;28;19920;-77
2022/08/21 05:05:43;;;;;;;;;;;14.70;99.90;;;;;;5092142;28;20644;-75
2022/08/21 05:08:11;;;;;;;;;;;14.70;99.90;;;;;;5087513;28;20246;-76
2022/08/21 05:10:37;;;;;;;;;;;14.80;99.90;;;;;;5084253;28;19920;-75
2022/08/21 05:13:04;;;;;;;;;;;14.90;99.90;;;;;;5094615;28;19938;-75
2022/08/21 05:15:30;;;;;;;;;;;14.90;99.90;;;;;;5082470;28;20303;-75
2022/08/21 05:17:55;;;;;;;;;;;15.00;99.90;;;;;;5096063;28;20003;-75
2022/08/21 05:20:21;;;;;;;;;;;15.10;99.90;;;;;;5074783;28;20500;-76
2022/08/21 05:22:46;;;;;;;;;;;15.10;99.90;;;;;;5076786;28;19920;-75
2022/08/21 05:25:12;;;;;;;;;;;15.20;99.90;;;;;;5074435;28;20210;-75
2022/08/21 05:27:38;;;;;;;;;;;15.20;99.90;;;;;;5090367;28;19919;-75
2022/08/21 05:30:04;;;;;;;;;;;15.30;99.90;;;;;;5083069;28;19912;-75
2022/08/21 05:32:30;;;;;;;;;;;15.30;99.90;;;;;;5084007;28;20215;-76
2022/08/21 05:34:55;;;;;;;;;;;15.40;99.90;;;;;;5064632;28;19912;-75
2022/08/21 05:37:21;;;;;;;;;;;15.40;99.90;;;;;;5073644;28;20295;-75
2022/08/21 05:39:47;;;;;;;;;;;15.50;99.90;;;;;;5092727;28;19952;-75
2022/08/21 05:42:12;;;;;;;;;;;15.50;99.90;;;;;;5095350;28;19962;-75
2022/08/21 05:44:38;;;;;;;;;;;15.60;99.90;;;;;;5092425;28;19961;-75
2022/08/21 05:47:08;;;;;;;;;;;15.60;99.90;;;;;;5082337;28;19923;-76
2022/08/21 05:49:33;;;;;;;;;;;15.70;99.90;;;;;;5082228;28;20022;-75
2022/08/21 05:51:59;;;;;;;;;;;15.80;99.90;;;;;;5086234;28;20065;-77
2022/08/21 05:54:24;;;;;;;;;;;15.80;99.90;;;;;;5091597;28;19920;-76
2022/08/21 05:56:50;;;;;;;;;;;15.90;99.90;;;;;;5073882;28;19920;-78
2022/08/21 05:59:16;;;;;;;;;;;15.90;99.90;;;;;;5108332;28;20303;-75
2022/08/21 06:01:41;;;;;;;;;;;16.00;99.90;;;;;;5064792;28;19912;-75
2022/08/21 06:04:07;;;;;;;;;;;16.10;99.90;;;;;;5073799;28;20003;-76
2022/08/21 06:06:33;;;;;;;;;;;16.10;99.90;;;;;;5107846;27;19935;-77
2022/08/21 06:08:59;;;;;;;;;;;16.20;99.90;;;;;;5090141;28;20316;-76
2022/08/21 06:11:24;;;;;;;;;;;16.20;99.90;;;;;;5088204;28;20015;-76
2022/08/21 06:13:50;;;;;;;;;;;16.20;99.90;;;;;;5086311;28;19912;-76
2022/08/21 06:16:16;;;;;;;;;;;16.30;99.90;;;;;;5070439;28;20211;-76
2022/08/21 06:18:42;;;;;;;;;;;16.30;99.90;;;;;;5087060;28;19916;-76
2022/08/21 06:21:08;;;;;;;;;;;16.40;99.90;;;;;;5088115;28;19922;-76
2022/08/21 06:23:34;;;;;;;;;;;16.40;99.90;;;;;;5088847;28;19921;-76
2022/08/21 06:26:00;;;;;;;;;;;16.50;99.90;;;;;;5071263;28;19943;-77
2022/08/21 06:28:26;;;;;;;;;;;16.50;99.90;;;;;;5085315;28;20318;-77
2022/08/21 06:30:52;;;;;;;;;;;16.60;99.90;;;;;;5087673;28;19924;-76
2022/08/21 06:33:17;;;;;;;;;;;16.70;99.90;;;;;;5087313;28;19916;-76
2022/08/21 06:35:43;;;;;;;;;;;16.70;99.90;;;;;;5069098;28;19999;-77
2022/08/21 06:38:08;;;;;;;;;;;16.80;99.90;;;;;;5086550;28;19920;-77
2022/08/21 06:40:34;;;;;;;;;;;16.90;99.90;;;;;;5070361;28;20014;-77
2022/08/21 06:43:08;;;;;;;;;;;16.90;99.90;;;;;;5086798;28;19947;-75
2022/08/21 06:45:33;;;;;;;;;;;16.90;99.90;;;;;;5089124;28;20306;-75
2022/08/21 06:47:59;;;;;;;;;;;17.00;99.90;;;;;;5065436;28;19916;-75
2022/08/21 06:50:24;;;;;;;;;;;17.10;99.90;;;;;;5085631;28;19924;-75
2022/08/21 06:52:57;;;;;;;;;;;17.10;99.90;;;;;;5086907;28;20218;-76
2022/08/21 06:55:23;;;;;;;;;;;17.20;99.90;;;;;;5086601;28;19969;-76
2022/08/21 06:57:48;;;;;;;;;;;17.30;99.90;;;;;;5086744;28;19942;-75
2022/08/21 07:00:14;;;;;;;;;;;17.30;99.90;;;;;;5068894;28;20342;-76
2022/08/21 07:02:39;;;;;;;;;;;17.40;99.90;;;;;;5071932;28;19927;-76
2022/08/21 07:05:05;;;;;;;;;;;17.50;99.90;;;;;;5072456;28;19924;-76
2022/08/21 07:07:31;;;;;;;;;;;17.50;99.90;;;;;;5092125;28;21240;-77
2022/08/21 07:09:56;;;;;;;;;;;17.70;99.90;;;;;;5072828;28;20384;-76
2022/08/21 07:12:22;;;;;;;;;;;17.80;99.90;;;;;;5069687;28;19916;-76
2022/08/21 07:14:48;;;;;;;;;;;17.90;99.90;;;;;;5072661;28;20050;-76
2022/08/21 07:17:14;;;;;;;;;;;18.00;99.90;;;;;;5074942;28;20215;-76
2022/08/21 07:19:39;;;;;;;;;;;18.30;99.90;;;;;;5090177;28;19923;-76
2022/08/21 07:22:05;;;;;;;;;;;18.80;99.90;;;;;;5088503;28;19985;-76
2022/08/21 07:24:30;;;;;;;;;;;19.30;99.90;;;;;;5091128;28;19912;-76
2022/08/21 07:26:56;;;;;;;;;;;19.90;99.90;;;;;;5091778;28;20212;-75
2022/08/21 07:29:21;;;;;;;;;;;20.40;99.90;;;;;;5087899;28;19958;-75
2022/08/21 07:31:47;;;;;;;;;;;20.60;99.90;;;;;;5071030;28;19920;-76
2022/08/21 07:34:12;;;;;;;;;;;20.80;99.90;;;;;;5090796;28;19912;-77
2022/08/21 07:36:38;;;;;;;;;;;21.10;99.90;;;;;;5088804;28;20325;-76
2022/08/21 07:39:04;;;;;;;;;;;21.20;99.90;;;;;;5072703;28;19913;-76
2022/08/21 07:41:29;;;;;;;;;;;21.30;99.90;;;;;;5072649;28;19916;-79
2022/08/21 07:43:57;;;;;;;;;;;21.40;99.90;;;;;;5072212;28;19913;-76
2022/08/21 07:46:23;;;;;;;;;;;21.50;99.90;;;;;;5089664;28;19939;-77
2022/08/21 07:48:48;;;;;;;;;;;21.50;99.90;;;;;;5090460;28;19948;-77
2022/08/21 07:51:15;;;;;;;;;;;21.60;99.90;;;;;;5075222;28;19974;-76
2022/08/21 07:53:41;;;;;;;;;;;21.90;99.90;;;;;;5092220;28;20366;-76
2022/08/21 07:56:10;;;;;;;;;;;22.10;99.90;;;;;;5072455;28;20003;-77
2022/08/21 07:58:36;;;;;;;;;;;22.20;99.90;;;;;;5105948;28;19958;-76
2022/08/21 08:01:02;;;;;;;;;;;22.40;99.90;;;;;;5088947;28;19932;-76
2022/08/21 08:03:27;;;;;;;;;;;22.50;99.90;;;;;;5095161;28;20349;-76
2022/08/21 08:05:53;;;;;;;;;;;22.60;99.90;;;;;;5093107;28;19924;-78
2022/08/21 08:08:19;;;;;;;;;;;22.70;99.90;;;;;;5093091;28;19920;-76
2022/08/21 08:10:45;;;;;;;;;;;22.70;99.90;;;;;;5087241;28;19920;-76
2022/08/21 08:13:10;;;;;;;;;;;22.80;99.90;;;;;;5091708;28;19912;-75
2022/08/21 08:15:36;;;;;;;;;;;22.90;99.90;;;;;;5093392;28;19938;-78
2022/08/21 08:18:01;;;;;;;;;;;23.20;99.90;;;;;;5094449;28;20080;-77
2022/08/21 08:20:28;;;;;;;;;;;23.30;99.90;;;;;;5094525;28;19920;-79
2022/08/21 08:22:56;;;;;;;;;;;23.60;99.90;;;;;;5096427;28;20263;-75
2022/08/21 08:25:22;;;;;;;;;;;23.70;99.90;;;;;;5096614;28;19912;-77
2022/08/21 08:27:48;;;;;;;;;;;23.90;99.90;;;;;;5095102;28;19919;-77
2022/08/21 08:30:15;;;;;;;;;;;24.10;99.90;;;;;;5096941;28;19912;-76
2022/08/21 08:32:41;;;;;;;;;;;24.20;99.90;;;;;;5081353;28;19987;-76
2022/08/21 08:35:07;;;;;;;;;;;24.30;99.90;;;;;;5097043;28;20003;-82
2022/08/21 08:37:33;;;;;;;;;;;24.10;99.90;;;;;;5094306;28;19912;-78
2022/08/21 08:39:59;;;;;;;;;;;23.90;99.90;;;;;;5075908;28;20184;-77
2022/08/21 08:42:29;;;;;;;;;;;23.60;99.90;;;;;;5091340;28;19942;-79
2022/08/21 08:44:57;;;;;;;;;;;23.40;99.90;;;;;;5087040;28;19920;-77
2022/08/21 08:47:24;;;;;;;;;;;23.10;99.90;;;;;;5071178;28;19920;-75
2022/08/21 08:49:54;;;;;;;;;;;23.00;99.90;;;;;;5096116;28;19927;-74
2022/08/21 08:52:28;;;;;;;;;;;22.80;99.90;;;;;;5079007;28;19916;-75
2022/08/21 08:55:14;;;;;;;;;;;23.00;99.90;;;;;;5095499;28;20016;-75
2022/08/21 08:57:41;;;;;;;;;;;23.20;99.90;;;;;;5095512;28;19916;-75
2022/08/21 09:00:11;;;;;;;;;;;23.70;99.90;;;;;;5078208;28;20265;-76
2022/08/21 09:02:44;;;;;;;;;;;24.10;99.90;;;;;;5070866;28;19916;-76
2022/08/21 09:05:21;;;;;;;;;;;24.40;99.90;;;;;;5051294;28;20238;-76
2022/08/21 09:07:59;;;;;;;;;;;24.80;99.90;;;;;;5035396;28;20054;-77
2022/08/21 09:10:39;;;;;;;;;;;25.00;99.90;;;;;;5053389;28;20224;-77
2022/08/21 09:13:17;;;;;;;;;;;25.20;99.90;;;;;;5052364;28;19937;-78
2022/08/21 09:15:52;;;;;;;;;;;25.50;99.90;;;;;;5069657;28;19913;-79
2022/08/21 09:18:34;;;;;;;;;;;25.40;99.90;;;;;;5035874;28;19924;-78
2022/08/21 09:21:32;;;;;;;;;;;25.00;99.90;;;;;;5069951;28;19966;-79
2022/08/21 09:24:12;;;;;;;;;;;24.50;99.90;;;;;;4970181;28;19949;-77
2022/08/21 09:27:01;;;;;;;;;;;24.10;99.90;;;;;;4967227;28;20005;-79
2022/08/21 09:29:29;;;;;;;;;;;23.70;99.90;;;;;;4957874;28;20028;-75
2022/08/21 09:31:55;;;;;;;;;;;23.30;99.90;;;;;;4969193;28;19953;-77
2022/08/21 09:34:25;;;;;;;;;;;23.00;99.90;;;;;;4971938;28;19946;-76
2022/08/21 09:36:51;;;;;;;;;;;22.80;99.90;;;;;;4955620;28;19914;-76
2022/08/21 09:39:30;;;;;;;;;;;22.70;99.90;;;;;;4969360;28;19933;-78
2022/08/21 09:41:57;;;;;;;;;;;22.60;99.90;;;;;;4969755;28;19914;-76
2022/08/21 09:44:28;;;;;;;;;;;22.50;99.90;;;;;;4970860;28;19973;-76
2022/08/21 09:46:54;;;;;;;;;;;22.40;99.90;;;;;;4967216;28;19925;-76
2022/08/21 09:49:34;;;;;;;;;;;22.50;99.90;;;;;;4971235;28;19922;-76
2022/08/21 09:52:00;;;;;;;;;;;22.90;99.90;;;;;;4978732;28;19929;-76
2022/08/21 09:54:31;;;;;;;;;;;23.50;99.90;;;;;;4969927;28;19918;-77
2022/08/21 09:59:53;;;;;;;;;;;24.30;99.90;;;;;;5023448;28;19939;-75
2022/08/21 10:02:30;;;;;;;;;;;24.60;99.90;;;;;;5035714;28;19920;-76
2022/08/21 10:05:00;;;;;;;;;;;24.50;99.90;;;;;;5052299;28;20020;-75
2022/08/21 10:07:27;;;;;;;;;;;24.40;99.90;;;;;;5051150;28;19995;-75
2022/08/21 10:10:19;;;;;;;;;;;24.10;99.90;;;;;;5067955;28;19928;-76
2022/08/21 10:12:44;;;;;;;;;;;23.70;99.90;;;;;;5031402;28;19924;-76
2022/08/21 10:15:19;;;;;;;;;;;23.50;99.90;;;;;;5034965;28;19913;-75
2022/08/21 10:17:45;;;;;;;;;;;23.30;99.90;;;;;;5064352;28;20312;-76
2022/08/21 10:20:14;;;;;;;;;;;23.10;99.90;;;;;;5035118;28;19920;-75
2022/08/21 10:22:39;;;;;;;;;;;22.80;99.90;;;;;;5051219;28;19921;-76
2022/08/21 10:25:14;;;;;;;;;;;22.70;99.90;;;;;;5066313;28;20361;-76
2022/08/21 10:27:59;;;;;;;;;;;22.60;99.90;;;;;;5064639;28;19952;-76
2022/08/21 10:30:44;;;;;;;;;;;23.00;99.90;;;;;;5051912;28;19921;-76
2022/08/21 10:33:18;;;;;;;;;;;23.60;99.90;;;;;;5066713;28;19979;-77
2022/08/21 10:36:08;;;;;;;;;;;24.40;99.90;;;;;;5047728;28;19917;-77
2022/08/21 10:38:42;;;;;;;;;;;24.90;99.90;;;;;;5050340;28;19920;-76
2022/08/21 10:41:18;;;;;;;;;;;25.20;99.90;;;;;;5051867;28;19917;-77
2022/08/21 10:43:47;;;;;;;;;;;25.20;99.90;;;;;;5066376;28;20302;-76
2022/08/21 10:46:26;;;;;;;;;;;25.50;99.90;;;;;;5067426;28;19912;-78
2022/08/21 10:49:18;;;;;;;;;;;25.70;99.90;;;;;;5051550;28;19923;-79
2022/08/21 10:51:55;;;;;;;;;;;26.10;99.90;;;;;;5032164;28;20346;-76
2022/08/21 10:54:21;;;;;;;;;;;26.30;99.90;;;;;;5051901;28;19921;-76
2022/08/21 10:56:48;;;;;;;;;;;26.40;99.90;;;;;;5052061;28;19920;-79
2022/08/21 10:59:32;;;;;;;;;;;26.50;99.90;;;;;;5052422;28;19979;-76
2022/08/21 11:02:12;;;;;;;;;;;26.60;99.90;;;;;;5052946;28;20054;-76
2022/08/21 11:04:44;;;;;;;;;;;26.90;99.90;;;;;;5034832;28;19921;-77
2022/08/21 11:07:18;;;;;;;;;;;26.90;99.90;;;;;;5052148;28;19940;-76
2022/08/21 11:09:47;;;;;;;;;;;26.60;99.90;;;;;;5066549;28;19924;-77
2022/08/21 11:12:32;;;;;;;;;;;26.10;98.70;;;;;;5034889;28;19917;-75
2022/08/21 11:15:21;;;;;;;;;;;25.50;98.30;;;;;;5051739;28;19947;-74
2022/08/21 11:17:55;;;;;;;;;;;24.90;99.50;;;;;;5021321;28;20369;-76
2022/08/21 11:20:21;;;;;;;;;;;24.50;99.90;;;;;;5047595;28;19920;-78
2022/08/21 11:22:54;;;;;;;;;;;24.60;99.90;;;;;;5034593;28;19917;-76
2022/08/21 11:25:23;;;;;;;;;;;24.90;99.90;;;;;;5065071;28;19975;-78
2022/08/21 11:27:58;;;;;;;;;;;24.90;99.90;;;;;;5050612;28;20271;-76
2022/08/21 11:30:25;;;;;;;;;;;24.80;99.90;;;;;;5049568;28;19921;-74
2022/08/21 11:33:21;;;;;;;;;;;24.50;99.90;;;;;;5049502;28;19912;-73
2022/08/21 11:35:52;;;;;;;;;;;24.30;99.90;;;;;;5051098;28;19919;-74
2022/08/21 11:38:24;;;;;;;;;;;24.30;99.90;;;;;;5047140;28;19917;-75
2022/08/21 11:41:06;;;;;;;;;;;24.70;99.90;;;;;;5049045;28;19924;-75
2022/08/21 11:43:43;;;;;;;;;;;25.20;99.90;;;;;;5049801;28;20008;-75
2022/08/21 11:46:16;;;;;;;;;;;25.50;99.90;;;;;;5051951;28;20288;-77
2022/08/21 11:48:42;;;;;;;;;;;25.90;99.90;;;;;;5067220;28;20056;-77
2022/08/21 11:51:11;;;;;;;;;;;26.20;99.10;;;;;;5054149;28;20320;-75
2022/08/21 11:53:39;;;;;;;;;;;26.40;98.80;;;;;;5051459;28;19919;-78
2022/08/21 11:56:11;;;;;;;;;;;26.80;99.90;;;;;;5068843;28;19923;-75
2022/08/21 11:58:45;;;;;;;;;;;27.10;99.40;;;;;;5054815;28;19956;-75
2022/08/21 12:01:15;;;;;;;;;;;27.10;97.20;;;;;;5054636;28;19912;-75
2022/08/21 12:04:01;;;;;;;;;;;27.10;97.20;;;;;;5061349;28;20587;-75
2022/08/21 12:06:29;;;;;;;;;;;27.20;98.00;;;;;;5027122;28;19917;-76
2022/08/21 12:09:00;;;;;;;;;;;27.20;97.00;;;;;;5031763;28;19917;-76
2022/08/21 12:11:25;;;;;;;;;;;26.90;97.40;;;;;;5028084;28;21527;-76
2022/08/21 12:14:06;;;;;;;;;;;26.90;98.30;;;;;;5031672;28;19913;-76
2022/08/21 12:16:34;;;;;;;;;;;27.00;97.00;;;;;;5030849;28;20343;-76
2022/08/21 12:19:04;;;;;;;;;;;27.40;98.30;;;;;;5030912;28;19916;-74
2022/08/21 12:21:29;;;;;;;;;;;27.50;97.40;;;;;;5028068;28;20382;-76
2022/08/21 12:24:04;;;;;;;;;;;27.60;96.40;;;;;;5034514;28;19928;-78
2022/08/21 12:26:32;;;;;;;;;;;27.30;97.30;;;;;;5033794;28;20011;-75
2022/08/21 12:29:15;;;;;;;;;;;27.00;97.40;;;;;;5031781;28;20306;-74
2022/08/21 12:31:48;;;;;;;;;;;27.00;98.30;;;;;;5032600;28;20371;-73
2022/08/21 12:34:14;;;;;;;;;;;26.70;97.90;;;;;;5028018;28;19999;-76
2022/08/21 12:37:02;;;;;;;;;;;26.00;97.40;;;;;;5030592;28;19917;-76
2022/08/21 12:39:30;;;;;;;;;;;25.60;99.40;;;;;;5028593;28;19921;-75
2022/08/21 12:42:00;;;;;;;;;;;25.50;99.60;;;;;;5026739;28;19925;-76
2022/08/21 12:44:37;;;;;;;;;;;25.70;98.20;;;;;;5033375;28;20205;-75
2022/08/21 12:47:05;;;;;;;;;;;25.60;98.40;;;;;;5033461;28;19919;-77
2022/08/21 12:49:42;;;;;;;;;;;25.80;98.70;;;;;;5029912;28;19917;-75
2022/08/21 12:52:16;;;;;;;;;;;25.60;97.50;;;;;;5030854;28;20324;-76
2022/08/21 12:54:43;;;;;;;;;;;25.50;97.90;;;;;;5030265;28;19932;-73
2022/08/21 12:57:17;;;;;;;;;;;25.30;98.30;;;;;;5024220;28;20351;-76
2022/08/21 12:59:43;;;;;;;;;;;25.20;99.90;;;;;;5024943;28;20014;-76
2022/08/21 13:02:19;;;;;;;;;;;25.30;98.90;;;;;;5027606;28;19963;-73
2022/08/21 13:04:46;;;;;;;;;;;25.10;98.40;;;;;;5050499;28;19935;-72
2022/08/21 13:07:15;;;;;;;;;;;25.20;99.60;;;;;;5051729;28;19913;-76
2022/08/21 13:09:52;;;;;;;;;;;25.50;98.70;;;;;;5051387;28;19923;-74
2022/08/21 13:12:19;;;;;;;;;;;25.90;99.90;;;;;;5035264;28;19921;-73
2022/08/21 13:14:47;;;;;;;;;;;26.10;99.90;;;;;;5051543;28;19924;-74
2022/08/21 13:17:13;;;;;;;;;;;26.20;98.20;;;;;;5061620;28;19922;-73
2022/08/21 13:19:39;;;;;;;;;;;26.20;98.90;;;;;;5058085;28;20362;-73
2022/08/21 13:22:11;;;;;;;;;;;26.20;98.30;;;;;;5034795;28;20011;-75
2022/08/21 13:24:37;;;;;;;;;;;26.10;97.50;;;;;;5042428;28;20308;-74
2022/08/21 13:27:03;;;;;;;;;;;25.90;98.70;;;;;;5059377;28;19912;-75
2022/08/21 13:29:30;;;;;;;;;;;25.70;97.30;;;;;;5042452;28;20012;-74
2022/08/21 13:31:57;;;;;;;;;;;25.50;99.60;;;;;;5036695;28;20021;-74
2022/08/21 13:34:25;;;;;;;;;;;25.70;99.80;;;;;;5050889;28;19920;-76
2022/08/21 13:36:58;;;;;;;;;;;25.90;99.80;;;;;;5051659;28;19935;-74
2022/08/21 13:39:24;;;;;;;;;;;26.10;98.80;;;;;;5053949;28;20019;-75
2022/08/21 13:41:51;;;;;;;;;;;26.10;97.80;;;;;;5051948;28;20361;-74
2022/08/21 13:44:37;;;;;;;;;;;25.90;97.40;;;;;;5036014;28;20208;-73
2022/08/21 13:47:04;;;;;;;;;;;25.90;99.30;;;;;;5043721;28;20219;-75
2022/08/21 13:49:34;;;;;;;;;;;25.70;98.00;;;;;;5037962;28;20308;-73
2022/08/21 13:52:00;;;;;;;;;;;25.50;98.80;;;;;;5051914;28;19995;-74
2022/08/21 13:54:27;;;;;;;;;;;25.40;99.20;;;;;;5050665;28;20004;-73
2022/08/21 13:56:53;;;;;;;;;;;25.30;98.30;;;;;;5053751;28;20374;-75
2022/08/21 13:59:32;;;;;;;;;;;25.20;98.90;;;;;;5037166;28;19912;-74
2022/08/21 14:01:59;;;;;;;;;;;25.10;98.80;;;;;;5051657;28;19928;-74
2022/08/21 14:04:34;;;;;;;;;;;25.10;99.20;;;;;;5054827;28;19970;-76
2022/08/21 14:07:00;;;;;;;;;;;25.00;98.80;;;;;;5053842;28;19916;-76
2022/08/21 14:09:34;;;;;;;;;;;24.90;98.40;;;;;;5036139;28;19921;-73
2022/08/21 14:12:01;;;;;;;;;;;24.90;99.90;;;;;;5053067;28;20381;-76
2022/08/21 14:14:29;;;;;;;;;;;24.70;99.30;;;;;;5036068;28;19925;-74
2022/08/21 14:16:56;;;;;;;;;;;24.70;99.40;;;;;;5035348;28;19921;-74
2022/08/21 14:19:27;;;;;;;;;;;24.70;99.10;;;;;;5053864;28;19979;-77
2022/08/21 14:21:54;;;;;;;;;;;24.70;99.50;;;;;;5053397;28;19928;-72
2022/08/21 14:24:25;;;;;;;;;;;24.70;99.20;;;;;;5053798;28;19917;-74
2022/08/21 14:26:55;;;;;;;;;;;24.70;99.30;;;;;;5033760;28;20368;-75
2022/08/21 14:29:24;;;;;;;;;;;24.60;99.90;;;;;;5050785;28;20353;-75
2022/08/21 14:31:51;;;;;;;;;;;24.50;99.90;;;;;;5052281;28;19917;-74
2022/08/21 14:34:17;;;;;;;;;;;24.40;99.70;;;;;;5048780;28;19913;-73
2022/08/21 14:36:43;;;;;;;;;;;24.30;99.90;;;;;;5062080;28;20070;-75
2022/08/21 14:39:09;;;;;;;;;;;24.20;99.90;;;;;;5048155;28;19917;-74
2022/08/21 14:41:36;;;;;;;;;;;24.20;99.90;;;;;;5051125;28;19921;-72